sensor_id;sensor_type;location;lat;lon;timestamp;pressure;altitude;pressure_sealevel;temperature;humidity
61814;BME280;57055;-35.296;149.168;2023-03-23T00:01:22;95461.51;;;14.15;79.04
61814;BME280;57055;-35.296;149.168;2023-03-23T00:03:53;95465.58;;;14.16;79.19
61814;BME280;57055;-35.296;149.168;2023-03-23T00:06:22;95466.61;;;14.14;79.13
61814;BME280;57055;-35.296;149.168;2023-03-23T00:08:53;95463.60;;;14.15;79.19
61814;BME280;57055;-35.296;149.168;2023-03-23T00:11:24;95456.19;;;14.42;79.25
61814;BME280;57055;-35.296;149.168;2023-03-23T00:13:55;95461.18;;;14.20;79.28
61814;BME280;57055;-35.296;149.168;2023-03-23T00:16:25;95457.86;;;14.47;79.22
61814;BME280;57055;-35.296;149.168;2023-03-23T00:18:54;95457.75;;;14.28;79.14
61814;BME280;57055;-35.296;149.168;2023-03-23T00:21:24;95464.26;;;14.55;79.59
61814;BME280;57055;-35.296;149.168;2023-03-23T00:23:53;95462.66;;;14.41;79.13
61814;BME280;57055;-35.296;149.168;2023-03-23T00:26:22;95461.91;;;14.46;79.50
61814;BME280;57055;-35.296;149.168;2023-03-23T00:28:51;95456.91;;;14.48;79.26
61814;BME280;57055;-35.296;149.168;2023-03-23T00:31:19;95449.22;;;14.51;79.30
61814;BME280;57055;-35.296;149.168;2023-03-23T00:33:50;95448.42;;;14.50;79.53
61814;BME280;57055;-35.296;149.168;2023-03-23T00:36:18;95449.69;;;14.55;80.09
61814;BME280;57055;-35.296;149.168;2023-03-23T00:38:47;95451.12;;;14.58;79.60
61814;BME280;57055;-35.296;149.168;2023-03-23T00:41:15;95451.71;;;14.57;79.96
61814;BME280;57055;-35.296;149.168;2023-03-23T00:43:44;95449.16;;;14.62;79.79
61814;BME280;57055;-35.296;149.168;2023-03-23T00:46:13;95448.90;;;14.65;79.14
61814;BME280;57055;-35.296;149.168;2023-03-23T00:48:42;95449.52;;;14.72;79.78
61814;BME280;57055;-35.296;149.168;2023-03-23T00:51:11;95452.52;;;14.93;79.57
61814;BME280;57055;-35.296;149.168;2023-03-23T00:53:41;95458.57;;;14.69;79.74
61814;BME280;57055;-35.296;149.168;2023-03-23T00:56:10;95455.90;;;14.90;79.83
61814;BME280;57055;-35.296;149.168;2023-03-23T00:58:39;95450.90;;;14.64;79.56
61814;BME280;57055;-35.296;149.168;2023-03-23T01:01:09;95453.44;;;14.65;80.07
61814;BME280;57055;-35.296;149.168;2023-03-23T01:03:38;95458.03;;;14.68;80.54
61814;BME280;57055;-35.296;149.168;2023-03-23T01:06:09;95450.90;;;14.94;80.18
61814;BME280;57055;-35.296;149.168;2023-03-23T01:08:38;95448.92;;;14.73;80.46
61814;BME280;57055;-35.296;149.168;2023-03-23T01:11:07;95450.87;;;14.52;80.84
61814;BME280;57055;-35.296;149.168;2023-03-23T01:13:36;95452.40;;;15.08;80.84
61814;BME280;57055;-35.296;149.168;2023-03-23T01:16:05;95448.92;;;14.82;81.02
61814;BME280;57055;-35.296;149.168;2023-03-23T01:18:35;95457.47;;;14.83;80.41
61814;BME280;57055;-35.296;149.168;2023-03-23T01:21:05;95465.31;;;14.89;81.17
61814;BME280;57055;-35.296;149.168;2023-03-23T01:23:35;95468.25;;;14.64;81.56
61814;BME280;57055;-35.296;149.168;2023-03-23T01:26:05;95477.03;;;14.66;80.85
61814;BME280;57055;-35.296;149.168;2023-03-23T01:28:34;95479.17;;;14.94;81.29
61814;BME280;57055;-35.296;149.168;2023-03-23T01:31:05;95484.30;;;14.94;80.99
61814;BME280;57055;-35.296;149.168;2023-03-23T01:33:34;95487.50;;;14.94;80.67
61814;BME280;57055;-35.296;149.168;2023-03-23T01:36:05;95489.92;;;14.68;81.25
61814;BME280;57055;-35.296;149.168;2023-03-23T01:38:36;95501.60;;;14.68;80.74
61814;BME280;57055;-35.296;149.168;2023-03-23T01:41:05;95502.77;;;14.94;80.80
61814;BME280;57055;-35.296;149.168;2023-03-23T01:43:34;95497.56;;;14.65;80.67
61814;BME280;57055;-35.296;149.168;2023-03-23T01:46:02;95494.96;;;14.87;79.76
61814;BME280;57055;-35.296;149.168;2023-03-23T01:48:33;95493.93;;;14.64;79.56
61814;BME280;57055;-35.296;149.168;2023-03-23T01:51:06;95489.27;;;14.90;79.99
61814;BME280;57055;-35.296;149.168;2023-03-23T01:53:40;95486.11;;;14.92;80.26
61814;BME280;57055;-35.296;149.168;2023-03-23T01:56:13;95479.08;;;14.66;80.07
61814;BME280;57055;-35.296;149.168;2023-03-23T01:58:43;95472.17;;;14.61;80.52
61814;BME280;57055;-35.296;149.168;2023-03-23T02:01:14;95463.88;;;14.90;79.98
61814;BME280;57055;-35.296;149.168;2023-03-23T02:03:46;95454.28;;;14.47;80.37
61814;BME280;57055;-35.296;149.168;2023-03-23T02:06:16;95433.78;;;15.13;80.24
61814;BME280;57055;-35.296;149.168;2023-03-23T02:08:46;95428.07;;;14.89;80.34
61814;BME280;57055;-35.296;149.168;2023-03-23T02:11:19;95422.09;;;14.85;80.85
61814;BME280;57055;-35.296;149.168;2023-03-23T02:13:49;95423.88;;;14.62;81.04
61814;BME280;57055;-35.296;149.168;2023-03-23T02:16:28;95418.85;;;15.15;80.90
61814;BME280;57055;-35.296;149.168;2023-03-23T02:19:10;95429.95;;;14.97;80.90
61814;BME280;57055;-35.296;149.168;2023-03-23T02:24:37;95421.21;;;15.07;81.63
61814;BME280;57055;-35.296;149.168;2023-03-23T02:27:13;95408.76;;;14.82;80.82
61814;BME280;57055;-35.296;149.168;2023-03-23T02:29:54;95411.76;;;15.05;81.74
61814;BME280;57055;-35.296;149.168;2023-03-23T02:33:44;95411.71;;;15.10;81.58
61814;BME280;57055;-35.296;149.168;2023-03-23T02:36:20;95405.14;;;14.71;81.30
61814;BME280;57055;-35.296;149.168;2023-03-23T02:38:58;95406.30;;;15.21;81.19
61814;BME280;57055;-35.296;149.168;2023-03-23T02:41:32;95400.99;;;14.94;80.72
61814;BME280;57055;-35.296;149.168;2023-03-23T02:44:06;95378.12;;;15.24;81.27
61814;BME280;57055;-35.296;149.168;2023-03-23T02:46:37;95346.47;;;15.26;81.93
61814;BME280;57055;-35.296;149.168;2023-03-23T02:49:09;95340.36;;;15.30;82.46
61814;BME280;57055;-35.296;149.168;2023-03-23T02:51:40;95350.77;;;15.35;82.12
61814;BME280;57055;-35.296;149.168;2023-03-23T02:54:10;95351.17;;;14.95;81.08
61814;BME280;57055;-35.296;149.168;2023-03-23T02:56:40;95346.77;;;15.02;81.63
61814;BME280;57055;-35.296;149.168;2023-03-23T02:59:10;95344.89;;;15.66;81.29
61814;BME280;57055;-35.296;149.168;2023-03-23T03:01:59;95327.98;;;15.76;81.34
61814;BME280;57055;-35.296;149.168;2023-03-23T03:04:30;95319.22;;;15.30;80.75
61814;BME280;57055;-35.296;149.168;2023-03-23T03:07:21;95313.99;;;15.30;80.61
61814;BME280;57055;-35.296;149.168;2023-03-23T03:09:55;95303.64;;;15.56;80.13
61814;BME280;57055;-35.296;149.168;2023-03-23T03:12:33;95294.30;;;15.45;80.89
61814;BME280;57055;-35.296;149.168;2023-03-23T03:15:12;95277.40;;;15.30;81.64
61814;BME280;57055;-35.296;149.168;2023-03-23T03:17:50;95265.10;;;15.31;82.37
61814;BME280;57055;-35.296;149.168;2023-03-23T03:20:23;95259.83;;;15.50;80.84
61814;BME280;57055;-35.296;149.168;2023-03-23T03:22:54;95253.62;;;15.34;79.97
61814;BME280;57055;-35.296;149.168;2023-03-23T03:25:24;95250.27;;;15.37;81.19
61814;BME280;57055;-35.296;149.168;2023-03-23T03:27:55;95249.98;;;15.44;79.77
61814;BME280;57055;-35.296;149.168;2023-03-23T03:30:28;95255.19;;;15.48;80.25
61814;BME280;57055;-35.296;149.168;2023-03-23T03:32:58;95265.69;;;15.56;80.17
61814;BME280;57055;-35.296;149.168;2023-03-23T03:35:27;95267.29;;;15.62;80.10
61814;BME280;57055;-35.296;149.168;2023-03-23T03:38:04;95267.00;;;15.27;80.41
61814;BME280;57055;-35.296;149.168;2023-03-23T03:40:34;95256.08;;;15.50;80.49
61814;BME280;57055;-35.296;149.168;2023-03-23T03:43:04;95246.29;;;15.51;80.69
61814;BME280;57055;-35.296;149.168;2023-03-23T03:45:34;95245.98;;;15.58;79.83
61814;BME280;57055;-35.296;149.168;2023-03-23T03:48:03;95244.23;;;15.65;80.57
61814;BME280;57055;-35.296;149.168;2023-03-23T03:50:32;95226.81;;;15.73;79.95
61814;BME280;57055;-35.296;149.168;2023-03-23T03:53:01;95217.24;;;15.74;80.03
61814;BME280;57055;-35.296;149.168;2023-03-23T03:55:30;95205.85;;;15.62;79.63
61814;BME280;57055;-35.296;149.168;2023-03-23T03:57:58;95190.55;;;16.00;79.31
61814;BME280;57055;-35.296;149.168;2023-03-23T04:00:27;95198.20;;;15.84;78.87
61814;BME280;57055;-35.296;149.168;2023-03-23T04:02:55;95194.63;;;16.18;78.48
61814;BME280;57055;-35.296;149.168;2023-03-23T04:05:24;95188.37;;;15.95;77.90
61814;BME280;57055;-35.296;149.168;2023-03-23T04:07:53;95172.29;;;16.06;78.08
61814;BME280;57055;-35.296;149.168;2023-03-23T04:10:22;95164.76;;;16.06;78.06
61814;BME280;57055;-35.296;149.168;2023-03-23T04:12:50;95159.28;;;16.41;78.64
61814;BME280;57055;-35.296;149.168;2023-03-23T04:15:19;95153.65;;;16.15;78.53
61814;BME280;57055;-35.296;149.168;2023-03-23T04:17:48;95156.92;;;16.18;77.73
61814;BME280;57055;-35.296;149.168;2023-03-23T04:20:17;95158.60;;;16.49;78.39
61814;BME280;57055;-35.296;149.168;2023-03-23T04:22:47;95166.84;;;16.50;77.71
61814;BME280;57055;-35.296;149.168;2023-03-23T04:25:18;95165.57;;;15.88;77.33
61814;BME280;57055;-35.296;149.168;2023-03-23T04:27:47;95162.96;;;16.37;77.56
61814;BME280;57055;-35.296;149.168;2023-03-23T04:30:16;95156.84;;;16.35;77.49
61814;BME280;57055;-35.296;149.168;2023-03-23T04:32:45;95170.24;;;16.06;77.70
61814;BME280;57055;-35.296;149.168;2023-03-23T04:35:14;95173.79;;;16.32;77.16
61814;BME280;57055;-35.296;149.168;2023-03-23T04:37:43;95170.81;;;16.48;77.72
61814;BME280;57055;-35.296;149.168;2023-03-23T04:40:14;95165.41;;;16.44;78.20
61814;BME280;57055;-35.296;149.168;2023-03-23T04:42:43;95172.04;;;16.48;77.11
61814;BME280;57055;-35.296;149.168;2023-03-23T04:45:15;95172.93;;;16.40;77.22
61814;BME280;57055;-35.296;149.168;2023-03-23T04:47:44;95169.56;;;16.17;76.68
61814;BME280;57055;-35.296;149.168;2023-03-23T04:50:13;95166.20;;;16.54;75.56
61814;BME280;57055;-35.296;149.168;2023-03-23T04:52:42;95173.52;;;16.51;75.65
61814;BME280;57055;-35.296;149.168;2023-03-23T04:55:13;95176.13;;;15.97;76.11
61814;BME280;57055;-35.296;149.168;2023-03-23T04:57:42;95179.15;;;16.43;76.08
61814;BME280;57055;-35.296;149.168;2023-03-23T05:00:11;95185.77;;;16.87;75.57
61814;BME280;57055;-35.296;149.168;2023-03-23T05:02:41;95191.56;;;16.94;75.82
61814;BME280;57055;-35.296;149.168;2023-03-23T05:05:10;95189.41;;;16.92;75.34
61814;BME280;57055;-35.296;149.168;2023-03-23T05:07:40;95185.91;;;16.96;75.92
61814;BME280;57055;-35.296;149.168;2023-03-23T05:10:10;95184.41;;;17.18;75.25
61814;BME280;57055;-35.296;149.168;2023-03-23T05:12:39;95174.31;;;17.24;73.86
61814;BME280;57055;-35.296;149.168;2023-03-23T05:15:10;95168.44;;;17.27;72.49
61814;BME280;57055;-35.296;149.168;2023-03-23T05:17:40;95169.73;;;17.38;72.11
61814;BME280;57055;-35.296;149.168;2023-03-23T05:20:12;95172.14;;;17.52;72.55
61814;BME280;57055;-35.296;149.168;2023-03-23T05:22:42;95178.04;;;17.34;72.19
61814;BME280;57055;-35.296;149.168;2023-03-23T05:25:11;95181.17;;;17.52;71.58
61814;BME280;57055;-35.296;149.168;2023-03-23T05:27:41;95178.03;;;17.45;71.21
61814;BME280;57055;-35.296;149.168;2023-03-23T05:30:11;95169.52;;;17.53;72.12
61814;BME280;57055;-35.296;149.168;2023-03-23T05:32:39;95163.70;;;17.35;71.34
61814;BME280;57055;-35.296;149.168;2023-03-23T05:35:08;95155.84;;;17.01;71.81
61814;BME280;57055;-35.296;149.168;2023-03-23T05:37:38;95160.50;;;17.33;72.52
61814;BME280;57055;-35.296;149.168;2023-03-23T05:40:08;95160.84;;;17.34;71.64
61814;BME280;57055;-35.296;149.168;2023-03-23T05:42:37;95161.43;;;17.26;70.84
61814;BME280;57055;-35.296;149.168;2023-03-23T05:45:07;95157.95;;;17.36;70.70
61814;BME280;57055;-35.296;149.168;2023-03-23T05:47:37;95151.62;;;17.27;71.62
61814;BME280;57055;-35.296;149.168;2023-03-23T05:50:08;95151.94;;;17.36;71.36
61814;BME280;57055;-35.296;149.168;2023-03-23T05:52:37;95155.44;;;17.20;71.44
61814;BME280;57055;-35.296;149.168;2023-03-23T05:55:07;95158.82;;;17.40;71.32
61814;BME280;57055;-35.296;149.168;2023-03-23T05:57:35;95159.49;;;17.45;71.49
61814;BME280;57055;-35.296;149.168;2023-03-23T06:00:06;95159.37;;;17.46;70.45
61814;BME280;57055;-35.296;149.168;2023-03-23T06:02:35;95158.73;;;17.37;71.07
61814;BME280;57055;-35.296;149.168;2023-03-23T06:05:04;95158.94;;;17.31;71.02
61814;BME280;57055;-35.296;149.168;2023-03-23T06:07:33;95160.18;;;17.06;72.19
61814;BME280;57055;-35.296;149.168;2023-03-23T06:10:02;95166.01;;;17.30;72.40
61814;BME280;57055;-35.296;149.168;2023-03-23T06:12:31;95173.02;;;17.10;73.65
61814;BME280;57055;-35.296;149.168;2023-03-23T06:15:01;95184.46;;;17.31;74.24
61814;BME280;57055;-35.296;149.168;2023-03-23T06:17:29;95190.61;;;17.42;72.42
61814;BME280;57055;-35.296;149.168;2023-03-23T06:19:58;95190.31;;;17.41;71.68
61814;BME280;57055;-35.296;149.168;2023-03-23T06:22:27;95188.06;;;17.19;71.05
61814;BME280;57055;-35.296;149.168;2023-03-23T06:24:56;95185.97;;;17.46;70.64
61814;BME280;57055;-35.296;149.168;2023-03-23T06:27:25;95184.39;;;16.99;70.49
61814;BME280;57055;-35.296;149.168;2023-03-23T06:29:55;95183.46;;;17.48;70.44
61814;BME280;57055;-35.296;149.168;2023-03-23T06:32:25;95176.08;;;17.54;69.99
61814;BME280;57055;-35.296;149.168;2023-03-23T06:34:56;95173.65;;;17.28;70.13
61814;BME280;57055;-35.296;149.168;2023-03-23T06:37:25;95168.70;;;17.58;69.97
61814;BME280;57055;-35.296;149.168;2023-03-23T06:39:53;95168.71;;;17.38;70.13
61814;BME280;57055;-35.296;149.168;2023-03-23T06:42:23;95167.85;;;17.40;70.05
61814;BME280;57055;-35.296;149.168;2023-03-23T06:44:53;95164.57;;;17.66;69.92
61814;BME280;57055;-35.296;149.168;2023-03-23T06:47:22;95169.15;;;17.50;70.14
61814;BME280;57055;-35.296;149.168;2023-03-23T06:49:51;95167.37;;;17.51;69.89
61814;BME280;57055;-35.296;149.168;2023-03-23T06:52:20;95164.08;;;17.65;70.42
61814;BME280;57055;-35.296;149.168;2023-03-23T06:54:49;95161.88;;;17.62;69.72
61814;BME280;57055;-35.296;149.168;2023-03-23T06:57:19;95157.21;;;17.43;69.87
61814;BME280;57055;-35.296;149.168;2023-03-23T06:59:48;95153.80;;;17.43;70.58
61814;BME280;57055;-35.296;149.168;2023-03-23T07:02:16;95152.37;;;17.45;69.86
61814;BME280;57055;-35.296;149.168;2023-03-23T07:04:46;95151.06;;;17.30;70.18
61814;BME280;57055;-35.296;149.168;2023-03-23T07:07:14;95146.39;;;17.46;71.39
61814;BME280;57055;-35.296;149.168;2023-03-23T07:09:43;95140.28;;;17.42;71.56
61814;BME280;57055;-35.296;149.168;2023-03-23T07:12:12;95137.06;;;17.53;69.25
61814;BME280;57055;-35.296;149.168;2023-03-23T07:14:42;95139.06;;;17.59;68.68
61814;BME280;57055;-35.296;149.168;2023-03-23T07:17:11;95144.58;;;17.55;70.21
61814;BME280;57055;-35.296;149.168;2023-03-23T07:19:40;95146.62;;;17.49;70.31
61814;BME280;57055;-35.296;149.168;2023-03-23T07:22:08;95152.47;;;17.29;70.11
61814;BME280;57055;-35.296;149.168;2023-03-23T07:24:38;95152.20;;;17.45;70.67
61814;BME280;57055;-35.296;149.168;2023-03-23T07:27:07;95147.76;;;17.41;70.96
61814;BME280;57055;-35.296;149.168;2023-03-23T07:29:35;95138.30;;;17.35;71.00
61814;BME280;57055;-35.296;149.168;2023-03-23T07:32:05;95134.73;;;17.27;70.77
61814;BME280;57055;-35.296;149.168;2023-03-23T07:34:34;95130.54;;;17.26;71.07
61814;BME280;57055;-35.296;149.168;2023-03-23T07:37:04;95127.25;;;17.21;71.97
61814;BME280;57055;-35.296;149.168;2023-03-23T07:39:33;95131.53;;;17.15;71.88
61814;BME280;57055;-35.296;149.168;2023-03-23T07:42:03;95134.57;;;17.07;73.10
61814;BME280;57055;-35.296;149.168;2023-03-23T07:44:32;95135.10;;;17.19;73.42
61814;BME280;57055;-35.296;149.168;2023-03-23T07:47:02;95137.59;;;16.94;73.57
61814;BME280;57055;-35.296;149.168;2023-03-23T07:49:31;95130.58;;;16.77;73.24
61814;BME280;57055;-35.296;149.168;2023-03-23T07:52:00;95123.89;;;17.10;73.59
61814;BME280;57055;-35.296;149.168;2023-03-23T07:54:29;95117.64;;;17.02;73.17
61814;BME280;57055;-35.296;149.168;2023-03-23T07:56:57;95118.42;;;16.75;73.70
61814;BME280;57055;-35.296;149.168;2023-03-23T07:59:26;95112.60;;;16.59;74.04
61814;BME280;57055;-35.296;149.168;2023-03-23T08:01:54;95112.22;;;16.48;73.91
61814;BME280;57055;-35.296;149.168;2023-03-23T08:04:23;95112.37;;;16.59;74.21
61814;BME280;57055;-35.296;149.168;2023-03-23T08:06:51;95110.95;;;16.51;74.21
61814;BME280;57055;-35.296;149.168;2023-03-23T08:09:20;95115.24;;;16.44;74.54
61814;BME280;57055;-35.296;149.168;2023-03-23T08:11:49;95117.09;;;16.37;74.59
61814;BME280;57055;-35.296;149.168;2023-03-23T08:14:17;95117.10;;;16.22;74.62
61814;BME280;57055;-35.296;149.168;2023-03-23T08:16:46;95117.33;;;16.16;75.07
61814;BME280;57055;-35.296;149.168;2023-03-23T08:19:15;95125.05;;;16.08;76.12
61814;BME280;57055;-35.296;149.168;2023-03-23T08:21:44;95135.67;;;16.35;75.86
61814;BME280;57055;-35.296;149.168;2023-03-23T08:24:12;95139.07;;;16.06;76.23
61814;BME280;57055;-35.296;149.168;2023-03-23T08:26:42;95137.18;;;16.29;75.98
61814;BME280;57055;-35.296;149.168;2023-03-23T08:29:10;95140.80;;;15.98;76.01
61814;BME280;57055;-35.296;149.168;2023-03-23T08:31:40;95142.69;;;15.94;75.83
61814;BME280;57055;-35.296;149.168;2023-03-23T08:34:08;95146.36;;;16.07;75.72
61814;BME280;57055;-35.296;149.168;2023-03-23T08:36:37;95160.84;;;15.97;75.43
61814;BME280;57055;-35.296;149.168;2023-03-23T08:39:05;95161.08;;;15.93;75.28
61814;BME280;57055;-35.296;149.168;2023-03-23T08:41:34;95157.99;;;15.91;75.45
61814;BME280;57055;-35.296;149.168;2023-03-23T08:44:03;95161.64;;;15.83;75.19
61814;BME280;57055;-35.296;149.168;2023-03-23T08:46:32;95164.02;;;16.02;74.87
61814;BME280;57055;-35.296;149.168;2023-03-23T08:49:01;95166.66;;;15.78;74.68
61814;BME280;57055;-35.296;149.168;2023-03-23T08:51:29;95169.12;;;15.71;74.94
61814;BME280;57055;-35.296;149.168;2023-03-23T08:53:59;95168.04;;;15.70;75.27
61814;BME280;57055;-35.296;149.168;2023-03-23T08:56:27;95166.98;;;15.69;75.86
61814;BME280;57055;-35.296;149.168;2023-03-23T08:58:56;95162.73;;;15.69;75.99
61814;BME280;57055;-35.296;149.168;2023-03-23T09:01:24;95159.35;;;15.65;75.54
61814;BME280;57055;-35.296;149.168;2023-03-23T09:03:53;95157.25;;;15.56;75.54
61814;BME280;57055;-35.296;149.168;2023-03-23T09:06:22;95158.59;;;15.51;75.72
61814;BME280;57055;-35.296;149.168;2023-03-23T09:08:50;95163.82;;;15.46;75.71
61814;BME280;57055;-35.296;149.168;2023-03-23T09:11:19;95172.52;;;15.37;75.18
61814;BME280;57055;-35.296;149.168;2023-03-23T09:13:47;95184.63;;;15.45;74.76
61814;BME280;57055;-35.296;149.168;2023-03-23T09:16:16;95187.36;;;15.32;74.97
61814;BME280;57055;-35.296;149.168;2023-03-23T09:18:45;95193.35;;;15.77;75.28
61814;BME280;57055;-35.296;149.168;2023-03-23T09:21:13;95201.03;;;15.33;75.56
61814;BME280;57055;-35.296;149.168;2023-03-23T09:23:43;95205.44;;;15.36;75.72
61814;BME280;57055;-35.296;149.168;2023-03-23T09:26:12;95207.55;;;15.57;75.91
61814;BME280;57055;-35.296;149.168;2023-03-23T09:28:41;95210.70;;;15.25;75.39
61814;BME280;57055;-35.296;149.168;2023-03-23T09:31:10;95210.81;;;15.19;75.64
61814;BME280;57055;-35.296;149.168;2023-03-23T09:33:39;95216.19;;;15.39;75.75
61814;BME280;57055;-35.296;149.168;2023-03-23T09:36:10;95228.52;;;15.37;75.50
61814;BME280;57055;-35.296;149.168;2023-03-23T09:38:39;95239.24;;;15.34;75.59
61814;BME280;57055;-35.296;149.168;2023-03-23T09:41:16;95242.23;;;15.59;75.73
61814;BME280;57055;-35.296;149.168;2023-03-23T09:43:57;95243.08;;;15.12;75.83
61814;BME280;57055;-35.296;149.168;2023-03-23T09:46:40;95247.24;;;15.32;75.31
61814;BME280;57055;-35.296;149.168;2023-03-23T09:49:14;95252.89;;;15.35;75.52
61814;BME280;57055;-35.296;149.168;2023-03-23T09:51:46;95258.05;;;15.16;75.46
61814;BME280;57055;-35.296;149.168;2023-03-23T09:54:21;95262.03;;;15.35;75.36
61814;BME280;57055;-35.296;149.168;2023-03-23T09:56:51;95260.48;;;15.27;74.92
61814;BME280;57055;-35.296;149.168;2023-03-23T09:59:27;95258.46;;;15.45;75.10
61814;BME280;57055;-35.296;149.168;2023-03-23T10:02:03;95259.92;;;15.23;75.42
61814;BME280;57055;-35.296;149.168;2023-03-23T10:04:43;95256.96;;;15.48;75.44
61814;BME280;57055;-35.296;149.168;2023-03-23T10:07:14;95254.43;;;15.11;74.84
61814;BME280;57055;-35.296;149.168;2023-03-23T10:09:45;95258.18;;;15.06;75.20
61814;BME280;57055;-35.296;149.168;2023-03-23T10:12:23;95261.15;;;15.02;75.59
61814;BME280;57055;-35.296;149.168;2023-03-23T10:15:03;95259.21;;;14.94;75.57
61814;BME280;57055;-35.296;149.168;2023-03-23T10:17:36;95261.99;;;15.21;75.61
61814;BME280;57055;-35.296;149.168;2023-03-23T10:20:21;95258.99;;;15.17;75.38
61814;BME280;57055;-35.296;149.168;2023-03-23T10:22:55;95262.14;;;15.11;75.49
61814;BME280;57055;-35.296;149.168;2023-03-23T10:25:31;95263.50;;;15.06;75.23
61814;BME280;57055;-35.296;149.168;2023-03-23T10:28:08;95264.21;;;14.78;75.01
61814;BME280;57055;-35.296;149.168;2023-03-23T10:30:41;95256.67;;;14.78;75.21
61814;BME280;57055;-35.296;149.168;2023-03-23T10:33:15;95253.33;;;14.73;75.21
61814;BME280;57055;-35.296;149.168;2023-03-23T10:35:53;95248.97;;;14.91;74.86
61814;BME280;57055;-35.296;149.168;2023-03-23T10:38:29;95246.19;;;14.77;75.35
61814;BME280;57055;-35.296;149.168;2023-03-23T10:41:04;95241.29;;;14.71;74.85
61814;BME280;57055;-35.296;149.168;2023-03-23T10:43:34;95248.09;;;14.63;75.15
61814;BME280;57055;-35.296;149.168;2023-03-23T10:46:11;95248.98;;;14.67;75.07
61814;BME280;57055;-35.296;149.168;2023-03-23T10:48:44;95242.45;;;14.71;74.96
61814;BME280;57055;-35.296;149.168;2023-03-23T10:51:19;95241.72;;;14.72;74.84
61814;BME280;57055;-35.296;149.168;2023-03-23T10:53:56;95238.94;;;14.66;74.70
61814;BME280;57055;-35.296;149.168;2023-03-23T10:56:27;95237.96;;;14.61;74.50
61814;BME280;57055;-35.296;149.168;2023-03-23T10:58:56;95241.91;;;14.57;74.71
61814;BME280;57055;-35.296;149.168;2023-03-23T11:01:31;95246.73;;;14.63;74.87
61814;BME280;57055;-35.296;149.168;2023-03-23T11:04:01;95246.07;;;14.47;74.87
61814;BME280;57055;-35.296;149.168;2023-03-23T11:06:32;95252.72;;;14.39;75.06
61814;BME280;57055;-35.296;149.168;2023-03-23T11:09:12;95260.48;;;14.45;75.08
61814;BME280;57055;-35.296;149.168;2023-03-23T11:11:43;95267.95;;;14.54;75.21
61814;BME280;57055;-35.296;149.168;2023-03-23T11:14:17;95271.57;;;14.51;74.76
61814;BME280;57055;-35.296;149.168;2023-03-23T11:16:53;95272.45;;;14.51;74.60
61814;BME280;57055;-35.296;149.168;2023-03-23T11:19:25;95276.64;;;14.54;74.67
61814;BME280;57055;-35.296;149.168;2023-03-23T11:21:56;95277.67;;;14.54;74.49
61814;BME280;57055;-35.296;149.168;2023-03-23T11:24:27;95281.45;;;14.96;74.79
61814;BME280;57055;-35.296;149.168;2023-03-23T11:26:58;95280.82;;;14.41;74.54
61814;BME280;57055;-35.296;149.168;2023-03-23T11:29:28;95281.80;;;14.58;74.20
61814;BME280;57055;-35.296;149.168;2023-03-23T11:32:04;95279.26;;;14.47;74.48
61814;BME280;57055;-35.296;149.168;2023-03-23T11:34:36;95282.55;;;14.42;74.24
61814;BME280;57055;-35.296;149.168;2023-03-23T11:37:12;95287.53;;;14.18;74.38
61814;BME280;57055;-35.296;149.168;2023-03-23T11:39:49;95291.60;;;14.16;74.57
61814;BME280;57055;-35.296;149.168;2023-03-23T11:42:22;95295.55;;;14.14;74.60
61814;BME280;57055;-35.296;149.168;2023-03-23T11:44:51;95303.59;;;14.29;73.72
61814;BME280;57055;-35.296;149.168;2023-03-23T11:47:27;95305.37;;;14.21;73.71
61814;BME280;57055;-35.296;149.168;2023-03-23T11:50:02;95305.29;;;14.12;73.92
61814;BME280;57055;-35.296;149.168;2023-03-23T11:52:39;95304.96;;;14.37;74.16
61814;BME280;57055;-35.296;149.168;2023-03-23T11:55:13;95299.88;;;14.37;74.39
61814;BME280;57055;-35.296;149.168;2023-03-23T11:57:43;95297.69;;;13.95;74.12
61814;BME280;57055;-35.296;149.168;2023-03-23T12:00:15;95288.18;;;14.22;73.24
61814;BME280;57055;-35.296;149.168;2023-03-23T12:02:52;95285.83;;;13.97;73.00
61814;BME280;57055;-35.296;149.168;2023-03-23T12:05:36;95283.21;;;14.12;72.99
61814;BME280;57055;-35.296;149.168;2023-03-23T12:08:20;95278.57;;;13.85;73.38
61814;BME280;57055;-35.296;149.168;2023-03-23T12:10:58;95274.57;;;14.08;73.30
61814;BME280;57055;-35.296;149.168;2023-03-23T12:13:40;95268.94;;;13.95;73.00
61814;BME280;57055;-35.296;149.168;2023-03-23T12:16:20;95272.20;;;13.87;73.18
61814;BME280;57055;-35.296;149.168;2023-03-23T12:18:57;95282.47;;;13.99;72.89
61814;BME280;57055;-35.296;149.168;2023-03-23T12:21:36;95287.42;;;13.92;72.82
61814;BME280;57055;-35.296;149.168;2023-03-23T12:24:14;95295.13;;;13.78;73.02
61814;BME280;57055;-35.296;149.168;2023-03-23T12:26:50;95297.22;;;13.48;73.00
61814;BME280;57055;-35.296;149.168;2023-03-23T12:29:37;95297.59;;;13.70;72.92
61814;BME280;57055;-35.296;149.168;2023-03-23T12:32:25;95298.92;;;13.65;72.76
61814;BME280;57055;-35.296;149.168;2023-03-23T12:35:05;95302.38;;;13.60;72.60
61814;BME280;57055;-35.296;149.168;2023-03-23T12:37:48;95303.86;;;13.57;72.44
61814;BME280;57055;-35.296;149.168;2023-03-23T12:40:33;95302.38;;;13.60;72.75
61814;BME280;57055;-35.296;149.168;2023-03-23T12:43:12;95290.91;;;13.65;72.57
61814;BME280;57055;-35.296;149.168;2023-03-23T12:45:55;95288.36;;;13.65;72.18
61814;BME280;57055;-35.296;149.168;2023-03-23T12:48:29;95283.72;;;13.69;72.34
61814;BME280;57055;-35.296;149.168;2023-03-23T12:51:12;95286.20;;;13.69;72.27
61814;BME280;57055;-35.296;149.168;2023-03-23T12:53:48;95289.61;;;13.72;72.02
61814;BME280;57055;-35.296;149.168;2023-03-23T12:56:23;95296.78;;;13.70;71.99